Time;durP1;ratioP1;P1;durP2;ratioP2;P2;SDS_P1;SDS_P2;PMS_P1;PMS_P2;Temp;Humidity;BMP_temperature;BMP_pressure;BME280_temperature;BME280_humidity;BME280_pressure;Samples;Min_cycle;Max_cycle;Signal;HPM_P1;HPM_P2
2021/04/26 00:00:27;;;;;;;15.13;5.97;;;4.10;99.90;;;;;;5098171;28;20095;-82
2021/04/26 00:02:53;;;;;;;12.27;5.37;;;4.10;99.90;;;;;;5077511;28;20044;-81
2021/04/26 00:05:19;;;;;;;10.27;5.60;;;4.00;99.90;;;;;;5098891;28;20039;-81
2021/04/26 00:07:45;;;;;;;9.93;4.73;;;4.00;99.90;;;;;;5112373;28;20070;-81
2021/04/26 00:10:12;;;;;;;8.73;4.53;;;4.00;99.90;;;;;;5091802;28;20020;-81
2021/04/26 00:12:39;;;;;;;11.37;4.43;;;4.00;99.90;;;;;;5098066;28;20103;-82
2021/04/26 00:15:07;;;;;;;12.00;4.63;;;4.00;99.90;;;;;;5086993;28;20493;-82
2021/04/26 00:17:32;;;;;;;9.00;4.63;;;4.00;99.90;;;;;;5108797;28;20027;-82
2021/04/26 00:19:58;;;;;;;8.07;4.17;;;4.10;99.90;;;;;;5104363;28;20419;-82
2021/04/26 00:22:24;;;;;;;8.13;4.53;;;4.10;99.90;;;;;;5112329;28;20067;-82
2021/04/26 00:24:49;;;;;;;10.13;5.07;;;4.10;99.90;;;;;;5112187;28;20092;-82
2021/04/26 00:27:15;;;;;;;9.30;4.57;;;4.20;99.90;;;;;;5091407;28;20032;-82
2021/04/26 00:29:40;;;;;;;10.67;5.10;;;4.10;99.90;;;;;;5107411;28;20449;-82
2021/04/26 00:32:06;;;;;;;8.93;4.13;;;4.00;99.90;;;;;;5097991;28;20101;-82
2021/04/26 00:34:32;;;;;;;7.60;4.70;;;4.00;99.90;;;;;;5111939;28;20031;-82
2021/04/26 00:36:57;;;;;;;7.57;4.60;;;4.00;99.90;;;;;;5111988;28;20380;-82
2021/04/26 00:39:23;;;;;;;7.60;4.30;;;4.00;99.90;;;;;;5081252;28;20059;-82
2021/04/26 00:41:48;;;;;;;9.80;4.70;;;4.00;99.90;;;;;;5099882;28;20043;-82
2021/04/26 00:44:14;;;;;;;9.50;4.60;;;4.00;99.90;;;;;;5077980;28;20157;-82
2021/04/26 00:46:40;;;;;;;8.13;4.40;;;3.90;99.90;;;;;;5104095;28;20464;-82
2021/04/26 00:49:05;;;;;;;10.80;4.87;;;3.90;99.90;;;;;;5103511;28;20051;-82
2021/04/26 00:51:31;;;;;;;7.73;4.60;;;3.90;99.90;;;;;;5112000;28;20107;-82
2021/04/26 00:53:57;;;;;;;8.27;4.60;;;3.90;99.90;;;;;;5105874;28;20031;-83
2021/04/26 00:56:22;;;;;;;8.47;4.70;;;3.90;99.90;;;;;;5091394;28;20024;-82
2021/04/26 00:58:48;;;;;;;8.03;4.83;;;3.90;99.90;;;;;;5107753;28;20026;-82
2021/04/26 01:01:17;;;;;;;9.13;4.57;;;3.90;99.90;;;;;;5090261;28;20026;-83
2021/04/26 01:03:43;;;;;;;9.43;5.57;;;3.90;99.90;;;;;;5079954;28;20127;-82
2021/04/26 01:06:08;;;;;;;10.83;4.70;;;4.00;99.90;;;;;;5105290;28;20095;-76
2021/04/26 01:08:34;;;;;;;10.03;4.70;;;4.00;99.90;;;;;;5102800;28;20024;-76
2021/04/26 01:11:00;;;;;;;8.97;5.40;;;3.90;99.90;;;;;;5105986;28;20028;-76
2021/04/26 01:13:31;;;;;;;8.13;5.03;;;3.90;99.90;;;;;;5100636;28;20042;-75
2021/04/26 01:16:17;;;;;;;10.47;4.90;;;3.90;99.90;;;;;;5110107;28;20444;-76
2021/04/26 01:18:52;;;;;;;10.20;5.23;;;3.90;99.90;;;;;;5097008;28;20089;-75
2021/04/26 01:21:32;;;;;;;8.53;5.27;;;3.90;99.90;;;;;;5076759;28;20031;-75
2021/04/26 01:24:35;;;;;;;7.60;5.10;;;3.90;99.90;;;;;;5109505;28;20011;-75
2021/04/26 01:27:21;;;;;;;12.73;5.87;;;3.90;99.90;;;;;;5104199;28;20027;-75
2021/04/26 01:30:05;;;;;;;9.87;5.50;;;3.90;99.90;;;;;;5101147;28;20020;-75
2021/04/26 01:32:31;;;;;;;11.50;5.50;;;3.90;99.90;;;;;;5107228;28;20047;-75
2021/04/26 01:34:58;;;;;;;9.13;5.27;;;3.80;99.90;;;;;;5108975;28;20089;-75
2021/04/26 01:37:25;;;;;;;10.57;5.77;;;3.80;99.90;;;;;;5084525;28;20024;-75
2021/04/26 01:39:51;;;;;;;13.00;5.60;;;3.80;99.90;;;;;;5075587;28;20027;-75
2021/04/26 01:42:18;;;;;;;10.70;5.97;;;3.70;99.90;;;;;;5081134;28;20383;-75
2021/04/26 01:44:44;;;;;;;9.13;5.57;;;3.70;99.90;;;;;;5109648;28;20031;-75
2021/04/26 01:47:10;;;;;;;8.27;5.63;;;3.70;99.90;;;;;;5109823;28;20032;-75
2021/04/26 01:49:38;;;;;;;7.87;5.47;;;3.70;99.90;;;;;;5105273;28;20153;-75
2021/04/26 01:52:08;;;;;;;8.87;5.03;;;3.70;99.90;;;;;;5109887;28;20083;-75
2021/04/26 01:54:35;;;;;;;11.53;5.77;;;3.60;99.90;;;;;;5080690;28;20024;-76
2021/04/26 01:57:01;;;;;;;7.80;5.60;;;3.60;99.90;;;;;;5070991;28;20187;-76
2021/04/26 01:59:31;;;;;;;11.37;5.80;;;3.60;99.90;;;;;;5109766;28;20568;-76
2021/04/26 02:01:57;;;;;;;11.77;5.67;;;3.50;99.90;;;;;;5080417;28;20032;-75
2021/04/26 02:04:27;;;;;;;8.60;6.00;;;3.50;99.90;;;;;;5096024;28;20026;-76
2021/04/26 02:06:54;;;;;;;9.20;5.50;;;3.50;99.90;;;;;;5104738;28;20051;-75
2021/04/26 02:09:21;;;;;;;8.90;5.93;;;3.50;99.90;;;;;;5105524;28;20036;-75
2021/04/26 02:11:47;;;;;;;10.33;5.47;;;3.50;99.90;;;;;;5105180;28;20448;-75
2021/04/26 02:14:14;;;;;;;9.33;5.43;;;3.40;99.90;;;;;;5109267;28;20032;-75
2021/04/26 02:16:40;;;;;;;9.20;5.50;;;3.40;99.90;;;;;;5109541;28;20024;-75
2021/04/26 02:19:06;;;;;;;10.50;5.50;;;3.40;99.90;;;;;;5078775;28;20382;-75
2021/04/26 02:21:32;;;;;;;13.73;5.67;;;3.40;99.90;;;;;;5102625;28;20032;-75
2021/04/26 02:23:58;;;;;;;12.43;5.23;;;3.40;99.90;;;;;;5109216;28;20422;-75
2021/04/26 02:26:23;;;;;;;12.23;5.80;;;3.40;99.90;;;;;;5105285;28;20031;-76
2021/04/26 02:28:49;;;;;;;10.70;6.20;;;3.40;99.90;;;;;;5102963;28;20174;-75
2021/04/26 02:31:23;;;;;;;9.87;5.90;;;3.30;99.90;;;;;;5100974;28;20063;-75
2021/04/26 02:33:57;;;;;;;8.67;5.67;;;3.30;99.90;;;;;;5066832;28;20025;-75
2021/04/26 02:36:30;;;;;;;13.13;5.70;;;3.30;99.90;;;;;;5112858;28;20159;-75
2021/04/26 02:39:00;;;;;;;14.07;5.77;;;3.30;99.90;;;;;;5101064;28;20441;-75
2021/04/26 02:41:33;;;;;;;9.97;6.00;;;3.20;99.90;;;;;;5104041;28;20432;-76
2021/04/26 02:44:03;;;;;;;9.43;6.13;;;3.20;99.90;;;;;;5097085;28;20028;-76
2021/04/26 02:46:32;;;;;;;8.27;5.37;;;3.10;99.90;;;;;;5085481;28;20027;-75
2021/04/26 02:48:59;;;;;;;13.10;7.20;;;3.10;99.90;;;;;;5112567;28;20019;-76
2021/04/26 02:51:29;;;;;;;9.03;5.23;;;3.10;99.90;;;;;;5112463;28;20781;-76
2021/04/26 02:53:56;;;;;;;16.23;6.83;;;3.00;99.90;;;;;;5100952;28;20020;-76
2021/04/26 02:56:22;;;;;;;14.47;6.07;;;3.00;99.90;;;;;;5100890;28;20027;-75
2021/04/26 02:58:53;;;;;;;12.53;5.70;;;2.90;99.90;;;;;;5112223;28;20023;-75
2021/04/26 03:01:20;;;;;;;9.83;5.73;;;2.90;99.90;;;;;;5098400;28;20065;-76
2021/04/26 03:03:46;;;;;;;9.73;5.53;;;2.90;99.90;;;;;;5095826;28;20042;-76
2021/04/26 03:06:14;;;;;;;9.77;6.07;;;2.90;99.90;;;;;;5077934;28;20080;-75
2021/04/26 03:08:40;;;;;;;10.97;5.57;;;2.90;99.90;;;;;;5103706;28;20031;-76
2021/04/26 03:11:07;;;;;;;13.97;8.37;;;2.90;99.90;;;;;;5103379;28;20015;-76
2021/04/26 03:13:34;;;;;;;10.93;7.00;;;2.90;99.90;;;;;;5112114;28;20030;-75
2021/04/26 03:16:00;;;;;;;11.43;6.83;;;2.90;99.90;;;;;;5072496;28;20027;-75
2021/04/26 03:18:27;;;;;;;11.17;5.77;;;3.00;99.90;;;;;;5084346;28;20437;-75
2021/04/26 03:20:53;;;;;;;10.67;6.33;;;3.00;99.90;;;;;;5110014;28;20325;-75
2021/04/26 03:23:22;;;;;;;12.57;6.13;;;3.00;99.90;;;;;;5093868;28;20024;-76
2021/04/26 03:25:48;;;;;;;9.53;5.90;;;2.90;99.90;;;;;;5109910;28;20050;-75
2021/04/26 03:28:16;;;;;;;9.00;6.23;;;2.90;99.90;;;;;;5112111;28;20032;-76
2021/04/26 03:30:43;;;;;;;8.90;5.67;;;2.80;99.90;;;;;;5107728;28;20028;-75
2021/04/26 03:33:10;;;;;;;12.17;7.33;;;2.80;99.90;;;;;;5112147;28;20019;-75
2021/04/26 03:35:36;;;;;;;9.53;6.73;;;2.80;99.90;;;;;;5108058;28;20111;-75
2021/04/26 03:38:02;;;;;;;13.53;6.70;;;2.80;99.90;;;;;;5106136;28;20024;-75
2021/04/26 03:40:27;;;;;;;10.93;5.83;;;2.80;99.90;;;;;;5096846;28;20494;-76
2021/04/26 03:42:59;;;;;;;12.30;6.50;;;2.80;99.90;;;;;;5109196;28;20043;-76
2021/04/26 03:45:27;;;;;;;12.50;6.37;;;2.80;99.90;;;;;;5096747;28;20036;-76
2021/04/26 03:47:53;;;;;;;9.27;5.43;;;2.80;99.90;;;;;;5098321;28;20031;-76
2021/04/26 03:50:21;;;;;;;13.73;6.30;;;2.80;99.90;;;;;;5111872;28;20352;-76
2021/04/26 03:52:47;;;;;;;11.10;5.60;;;2.80;99.90;;;;;;5111700;28;20011;-76
2021/04/26 03:55:16;;;;;;;10.27;5.90;;;2.80;99.90;;;;;;5102095;28;20019;-76
2021/04/26 03:57:42;;;;;;;11.13;6.17;;;2.80;99.90;;;;;;5079369;28;20472;-76
2021/04/26 04:00:09;;;;;;;11.37;6.33;;;2.80;99.90;;;;;;5106523;28;20024;-76
2021/04/26 04:02:35;;;;;;;16.90;7.77;;;2.70;99.90;;;;;;5100419;28;20493;-76
2021/04/26 04:05:01;;;;;;;13.73;8.27;;;2.70;99.90;;;;;;5105160;28;20023;-76
2021/04/26 04:07:27;;;;;;;9.57;6.70;;;2.60;99.90;;;;;;5095023;28;20456;-76
2021/04/26 04:09:53;;;;;;;14.03;6.97;;;2.60;99.90;;;;;;5100667;28;20024;-76
2021/04/26 04:12:19;;;;;;;11.83;7.23;;;2.60;99.90;;;;;;5094131;28;20468;-76
2021/04/26 04:14:44;;;;;;;10.03;6.10;;;2.70;99.90;;;;;;5111429;28;20034;-76
2021/04/26 04:17:10;;;;;;;10.77;6.70;;;2.70;99.90;;;;;;5097233;28;20044;-76
2021/04/26 04:19:36;;;;;;;11.57;6.40;;;2.70;99.90;;;;;;5095157;28;20056;-76
2021/04/26 04:22:02;;;;;;;11.73;6.07;;;2.70;99.90;;;;;;5104651;28;20494;-76
2021/04/26 04:24:27;;;;;;;11.97;7.20;;;2.80;99.90;;;;;;5111088;28;20049;-76
2021/04/26 04:26:53;;;;;;;8.03;6.03;;;2.80;99.90;;;;;;5111305;28;20024;-76
2021/04/26 04:29:20;;;;;;;9.77;6.10;;;2.80;99.90;;;;;;5089696;28;20741;-75
2021/04/26 04:31:45;;;;;;;14.13;6.67;;;3.00;99.90;;;;;;5101309;28;20131;-76
2021/04/26 04:34:11;;;;;;;18.47;7.97;;;3.00;99.90;;;;;;5092774;28;20115;-76
2021/04/26 04:36:36;;;;;;;18.17;8.40;;;3.00;99.90;;;;;;5111232;28;20111;-76
2021/04/26 04:39:03;;;;;;;10.23;6.47;;;3.00;99.90;;;;;;5097578;28;20074;-76
2021/04/26 04:41:28;;;;;;;12.00;7.37;;;3.00;99.90;;;;;;5094602;28;20039;-76
2021/04/26 04:43:54;;;;;;;13.23;6.63;;;3.10;99.90;;;;;;5110823;28;20361;-75
2021/04/26 04:46:19;;;;;;;11.80;6.97;;;3.10;99.90;;;;;;5110744;28;20168;-75
2021/04/26 04:48:46;;;;;;;12.07;7.00;;;3.10;99.90;;;;;;5103870;28;20028;-75
2021/04/26 04:51:11;;;;;;;15.33;7.93;;;3.20;99.90;;;;;;5090732;28;20098;-75
2021/04/26 04:53:37;;;;;;;13.87;7.60;;;3.30;99.90;;;;;;5106752;28;20411;-76
2021/04/26 04:56:04;;;;;;;14.40;7.07;;;3.30;99.90;;;;;;5088280;28;20077;-75
2021/04/26 04:58:29;;;;;;;14.07;8.50;;;3.40;99.90;;;;;;5085934;28;20036;-75
2021/04/26 05:00:55;;;;;;;22.70;14.30;;;3.50;99.90;;;;;;5096287;28;20490;-75
2021/04/26 05:03:20;;;;;;;10.27;6.67;;;3.60;99.90;;;;;;5091098;28;20083;-75
2021/04/26 05:05:46;;;;;;;15.27;8.10;;;3.60;99.90;;;;;;5095440;28;20392;-75
2021/04/26 05:08:11;;;;;;;14.50;7.47;;;3.70;99.90;;;;;;5068715;28;20521;-75
2021/04/26 05:10:37;;;;;;;14.77;7.03;;;3.80;99.90;;;;;;5090820;28;20023;-75
2021/04/26 05:13:03;;;;;;;22.57;6.80;;;3.80;99.90;;;;;;5090569;28;20035;-75
2021/04/26 05:15:29;;;;;;;17.37;6.80;;;4.00;99.90;;;;;;5090586;28;20024;-75
2021/04/26 05:17:59;;;;;;;16.47;6.40;;;4.10;99.90;;;;;;5089121;28;20480;-75
2021/04/26 05:20:25;;;;;;;17.07;5.87;;;4.20;99.90;;;;;;5088565;28;20035;-75
2021/04/26 05:22:51;;;;;;;10.20;6.20;;;4.30;99.90;;;;;;5072696;28;20028;-75
2021/04/26 05:25:16;;;;;;;15.07;6.00;;;4.40;99.90;;;;;;5091260;28;20028;-75
2021/04/26 05:27:42;;;;;;;14.77;5.97;;;4.50;99.90;;;;;;5074291;28;20024;-75
2021/04/26 05:30:10;;;;;;;25.33;6.33;;;4.70;99.90;;;;;;5089575;28;20024;-75
2021/04/26 05:32:36;;;;;;;16.07;6.03;;;4.80;99.90;;;;;;5090034;28;20028;-75
2021/04/26 05:35:02;;;;;;;14.17;6.60;;;4.80;99.90;;;;;;5089351;28;20072;-75
2021/04/26 05:37:27;;;;;;;16.13;6.97;;;4.80;99.90;;;;;;5091840;28;20035;-75
2021/04/26 05:39:53;;;;;;;13.70;7.03;;;4.90;99.90;;;;;;5088639;28;20024;-75
2021/04/26 05:42:18;;;;;;;12.03;6.37;;;4.90;99.90;;;;;;5089232;28;20051;-75
2021/04/26 05:44:44;;;;;;;15.43;6.97;;;4.90;99.90;;;;;;5072083;28;20472;-75
2021/04/26 05:47:10;;;;;;;13.27;6.37;;;5.00;99.90;;;;;;5089105;28;20020;-75
2021/04/26 05:49:36;;;;;;;12.33;5.93;;;5.10;99.90;;;;;;5089059;28;20028;-75
2021/04/26 05:52:01;;;;;;;11.63;5.90;;;5.20;99.90;;;;;;5088370;28;20480;-75
2021/04/26 05:54:27;;;;;;;16.30;6.27;;;5.30;99.90;;;;;;5089518;28;20024;-75
2021/04/26 05:56:52;;;;;;;13.43;5.57;;;5.40;99.90;;;;;;5088933;28;21561;-75
2021/04/26 05:59:18;;;;;;;14.30;6.63;;;5.50;99.90;;;;;;5088112;28;20024;-75
2021/04/26 06:01:43;;;;;;;14.40;6.67;;;5.60;99.90;;;;;;5071767;28;20036;-75
2021/04/26 06:04:09;;;;;;;10.70;6.17;;;5.70;99.90;;;;;;5091928;28;20142;-78
2021/04/26 06:06:34;;;;;;;11.07;6.10;;;5.80;99.90;;;;;;5091407;28;20108;-81
2021/04/26 06:09:00;;;;;;;8.87;5.77;;;5.80;99.90;;;;;;5097810;28;20024;-75
2021/04/26 06:11:26;;;;;;;12.67;5.43;;;6.00;99.90;;;;;;5097042;28;20034;-75
2021/04/26 06:13:52;;;;;;;11.17;5.67;;;6.20;99.90;;;;;;5106420;28;20368;-82
2021/04/26 06:16:17;;;;;;;17.50;6.00;;;6.20;99.90;;;;;;5076736;28;20450;-76
2021/04/26 06:18:43;;;;;;;15.60;5.50;;;6.30;99.90;;;;;;5092915;28;20384;-82
2021/04/26 06:21:08;;;;;;;13.20;5.80;;;6.40;99.90;;;;;;5096115;28;20022;-82
2021/04/26 06:23:34;;;;;;;11.53;6.60;;;6.30;99.90;;;;;;5081368;28;20031;-72
2021/04/26 06:26:00;;;;;;;10.90;5.17;;;6.40;99.90;;;;;;5099672;28;20095;-71
2021/04/26 06:28:26;;;;;;;20.27;6.37;;;6.50;99.90;;;;;;5086206;28;20033;-71
2021/04/26 06:30:51;;;;;;;11.97;5.80;;;6.70;99.90;;;;;;5082008;28;20159;-69
2021/04/26 06:33:17;;;;;;;11.30;5.40;;;6.80;99.90;;;;;;5090824;28;20103;-83
2021/04/26 06:35:44;;;;;;;11.93;6.13;;;7.00;99.90;;;;;;5091154;28;20024;-83
2021/04/26 06:38:10;;;;;;;12.03;5.50;;;7.10;99.90;;;;;;5073914;28;20051;-82
2021/04/26 06:40:37;;;;;;;12.10;5.60;;;7.10;99.90;;;;;;5081949;28;20039;-76
2021/04/26 06:43:03;;;;;;;13.20;5.40;;;7.20;99.90;;;;;;5087407;28;20024;-77
2021/04/26 06:45:29;;;;;;;8.87;5.40;;;7.30;99.90;;;;;;5070907;28;20066;-76
2021/04/26 06:47:55;;;;;;;12.87;5.40;;;7.30;99.90;;;;;;5091558;28;20052;-81
2021/04/26 06:50:22;;;;;;;13.40;5.63;;;7.40;99.90;;;;;;5105651;22;20109;-82
2021/04/26 06:52:49;;;;;;;13.63;6.07;;;7.40;99.90;;;;;;5090763;28;20501;-78
2021/04/26 06:55:16;;;;;;;8.97;5.30;;;7.40;99.90;;;;;;5091036;28;20063;-78
2021/04/26 06:57:44;;;;;;;12.37;5.60;;;7.60;99.90;;;;;;5110015;22;20426;-82
2021/04/26 07:00:15;;;;;;;9.87;5.53;;;7.60;99.90;;;;;;5109413;28;20099;-82
2021/04/26 07:02:41;;;;;;;10.67;5.23;;;7.70;99.90;;;;;;5072732;28;20020;-76
2021/04/26 07:05:08;;;;;;;11.63;5.83;;;7.70;99.90;;;;;;5092339;28;20031;-72
2021/04/26 07:07:33;;;;;;;11.13;5.83;;;7.80;99.90;;;;;;5071464;28;20039;-73
2021/04/26 07:09:59;;;;;;;7.80;5.60;;;7.80;99.90;;;;;;5087752;28;20084;-73
2021/04/26 07:12:25;;;;;;;8.03;4.77;;;7.80;99.90;;;;;;5088675;28;20031;-76
2021/04/26 07:14:50;;;;;;;9.80;5.10;;;7.80;99.90;;;;;;5084712;28;20027;-81
2021/04/26 07:17:16;;;;;;;10.93;5.33;;;7.80;99.90;;;;;;5086866;28;20088;-82
2021/04/26 07:19:41;;;;;;;10.60;5.80;;;7.90;99.90;;;;;;5087756;28;20078;-81
2021/04/26 07:22:07;;;;;;;11.87;5.53;;;8.00;99.90;;;;;;5089457;28;20028;-81
2021/04/26 07:24:33;;;;;;;12.13;5.07;;;8.00;99.90;;;;;;5080916;28;20043;-81
2021/04/26 07:26:58;;;;;;;10.70;5.40;;;8.00;99.90;;;;;;5090728;28;20040;-81
2021/04/26 07:29:24;;;;;;;11.60;5.03;;;8.00;99.90;;;;;;5089293;28;20031;-81
2021/04/26 07:31:49;;;;;;;11.83;5.27;;;8.10;99.90;;;;;;5080009;28;20052;-81
2021/04/26 07:34:15;;;;;;;9.03;5.60;;;8.20;99.90;;;;;;5085010;28;20036;-81
2021/04/26 07:36:41;;;;;;;11.57;6.27;;;8.20;99.90;;;;;;5089478;28;20036;-81
2021/04/26 07:39:07;;;;;;;8.03;5.30;;;8.20;99.90;;;;;;5087937;28;20480;-81
2021/04/26 07:41:33;;;;;;;9.30;5.73;;;8.20;99.90;;;;;;5072911;28;20023;-83
2021/04/26 07:43:58;;;;;;;9.80;5.60;;;8.20;99.90;;;;;;5092828;28;20043;-83
2021/04/26 07:46:24;;;;;;;9.60;5.07;;;8.30;99.90;;;;;;5091402;28;20076;-73
2021/04/26 07:48:50;;;;;;;11.03;5.50;;;8.40;99.90;;;;;;5087653;28;20393;-73
2021/04/26 07:51:15;;;;;;;10.40;5.60;;;8.50;99.90;;;;;;5088756;28;20024;-82
2021/04/26 07:53:41;;;;;;;14.30;5.73;;;8.50;99.90;;;;;;5090366;28;20380;-83
2021/04/26 07:56:07;;;;;;;8.87;5.00;;;8.50;99.90;;;;;;5088037;28;20069;-82
2021/04/26 07:58:32;;;;;;;7.60;4.90;;;8.50;99.90;;;;;;5087660;28;20492;-76
2021/04/26 08:00:58;;;;;;;9.10;4.93;;;8.60;99.90;;;;;;5089409;28;20025;-76
2021/04/26 08:03:24;;;;;;;12.57;5.70;;;8.70;99.90;;;;;;5087482;28;20028;-73
2021/04/26 08:05:52;;;;;;;9.13;4.83;;;8.80;99.90;;;;;;5084721;28;20037;-72
2021/04/26 08:08:18;;;;;;;10.60;4.87;;;8.90;98.60;;;;;;5089243;28;20024;-76
2021/04/26 08:10:44;;;;;;;9.97;5.07;;;9.00;98.20;;;;;;5088050;28;20476;-73
2021/04/26 08:13:10;;;;;;;11.23;4.83;;;9.20;98.50;;;;;;5087419;28;20499;-72
2021/04/26 08:15:35;;;;;;;8.23;4.70;;;9.30;97.10;;;;;;5088859;28;20326;-80
2021/04/26 08:18:01;;;;;;;10.37;5.20;;;9.40;96.90;;;;;;5084553;28;20492;-79
2021/04/26 08:20:27;;;;;;;11.53;5.23;;;9.50;96.80;;;;;;5094971;28;20094;-80
2021/04/26 08:22:55;;;;;;;11.80;5.07;;;9.60;97.60;;;;;;5089425;28;20070;-80
2021/04/26 08:25:21;;;;;;;11.20;4.60;;;9.70;95.30;;;;;;5089066;28;20427;-80
2021/04/26 08:27:47;;;;;;;10.07;4.90;;;9.80;93.80;;;;;;5061642;28;20056;-83
2021/04/26 08:30:13;;;;;;;8.77;5.03;;;9.70;93.90;;;;;;5071404;28;20036;-83
2021/04/26 08:32:39;;;;;;;9.70;4.93;;;9.70;93.50;;;;;;5087904;28;20028;-67
2021/04/26 08:35:06;;;;;;;8.70;5.00;;;9.80;93.70;;;;;;5088168;28;20038;-67
2021/04/26 08:37:33;;;;;;;14.43;5.17;;;9.90;93.60;;;;;;5088203;28;20770;-68
2021/04/26 08:40:00;;;;;;;10.67;5.50;;;10.00;92.80;;;;;;5068967;28;20066;-68
2021/04/26 08:42:26;;;;;;;8.23;4.80;;;10.00;93.20;;;;;;5088257;28;20102;-68
2021/04/26 08:44:52;;;;;;;12.33;5.07;;;10.00;94.50;;;;;;5076025;28;20674;-69
2021/04/26 08:47:22;;;;;;;9.07;5.20;;;10.10;93.50;;;;;;5087124;28;20035;-69
2021/04/26 08:49:47;;;;;;;10.27;4.43;;;10.30;91.00;;;;;;5087727;28;20084;-71
2021/04/26 08:52:13;;;;;;;7.77;4.53;;;10.50;92.00;;;;;;5086254;28;20043;-71
2021/04/26 08:54:39;;;;;;;13.20;5.23;;;10.60;90.30;;;;;;5087304;28;20076;-76
2021/04/26 08:57:07;;;;;;;6.13;4.57;;;10.70;89.30;;;;;;5088337;28;20035;-66
2021/04/26 08:59:33;;;;;;;7.57;4.57;;;10.80;88.70;;;;;;5088246;28;20089;-65
2021/04/26 09:02:05;;;;;;;9.70;4.73;;;10.80;85.70;;;;;;5086547;28;20510;-65
2021/04/26 09:04:35;;;;;;;7.70;4.67;;;11.00;86.60;;;;;;5088554;28;20020;-66
2021/04/26 09:07:03;;;;;;;8.37;4.33;;;11.00;84.90;;;;;;5090724;28;20020;-65
2021/04/26 09:09:33;;;;;;;14.77;4.80;;;11.10;82.80;;;;;;5091905;28;20031;-65
2021/04/26 09:11:59;;;;;;;15.50;5.10;;;11.10;82.30;;;;;;5093160;28;20480;-66
2021/04/26 09:14:36;;;;;;;9.67;4.57;;;11.10;83.10;;;;;;5093476;28;20149;-66
2021/04/26 09:17:28;;;;;;;24.03;4.87;;;11.10;83.60;;;;;;5087710;28;20122;-70
2021/04/26 09:19:56;;;;;;;83.23;7.10;;;11.30;82.40;;;;;;5077494;28;20081;-71
2021/04/26 09:22:54;;;;;;;19.97;5.00;;;11.40;82.50;;;;;;5088149;28;20032;-71
2021/04/26 09:25:25;;;;;;;8.82;4.93;;;11.50;79.30;;;;;;5085403;28;20032;-71
2021/04/26 09:27:58;;;;;;;99.80;10.27;;;11.50;77.80;;;;;;5083383;28;20383;-71
2021/04/26 09:30:51;;;;;;;10.07;4.35;;;11.80;80.10;;;;;;5083428;28;20028;-71
2021/04/26 09:33:46;;;;;;;6.72;4.05;;;12.00;74.30;;;;;;5083897;28;20056;-72
2021/04/26 09:36:19;;;;;;;7.45;4.07;;;12.20;73.80;;;;;;5081268;28;20024;-71
2021/04/26 09:38:51;;;;;;;23.60;5.32;;;12.30;71.90;;;;;;5083886;28;20028;-71
2021/04/26 09:41:18;;;;;;;7.75;3.78;;;12.60;74.90;;;;;;5083115;28;20032;-71
2021/04/26 09:44:01;;;;;;;33.13;5.03;;;12.80;73.00;;;;;;5084784;28;20117;-72
2021/04/26 09:46:47;;;;;;;10.27;4.45;;;13.00;72.90;;;;;;5088220;28;20077;-72
2021/04/26 09:49:27;;;;;;;7.35;3.78;;;13.20;70.20;;;;;;5085939;28;20035;-71
2021/04/26 09:52:12;;;;;;;13.02;4.18;;;13.50;68.70;;;;;;5089001;28;20025;-71
2021/04/26 09:54:43;;;;;;;12.00;4.05;;;13.50;66.20;;;;;;5089462;28;20107;-72
2021/04/26 09:57:09;;;;;;;7.63;3.95;;;13.80;68.70;;;;;;5088530;28;20432;-71
2021/04/26 09:59:35;;;;;;;12.07;4.45;;;14.00;68.60;;;;;;5088218;28;20023;-72
2021/04/26 10:02:02;;;;;;;10.35;4.35;;;14.10;66.10;;;;;;5089401;28;20096;-72
2021/04/26 10:04:28;;;;;;;33.08;6.47;;;14.20;66.00;;;;;;5089165;28;20028;-71
2021/04/26 10:06:54;;;;;;;6.55;3.78;;;14.30;62.70;;;;;;5088625;28;20040;-70
2021/04/26 10:09:20;;;;;;;15.75;3.83;;;14.10;61.80;;;;;;5086967;28;20035;-70
2021/04/26 10:11:46;;;;;;;22.92;5.03;;;14.40;62.80;;;;;;5089605;28;20040;-69
2021/04/26 10:14:14;;;;;;;8.07;4.07;;;14.10;59.20;;;;;;5088247;28;20048;-69
2021/04/26 10:17:02;;;;;;;9.40;3.63;;;14.10;59.00;;;;;;5092456;28;20027;-69
2021/04/26 10:19:38;;;;;;;9.00;3.85;;;14.30;57.20;;;;;;5088316;28;20049;-69
2021/04/26 10:22:05;;;;;;;7.15;3.67;;;14.30;57.40;;;;;;5091641;28;20385;-69
2021/04/26 10:24:32;;;;;;;5.95;3.95;;;14.30;56.60;;;;;;5091152;28;20028;-69
2021/04/26 10:27:02;;;;;;;8.00;3.85;;;14.50;59.80;;;;;;5091872;28;20035;-69
2021/04/26 10:29:31;;;;;;;10.30;3.65;;;14.90;58.80;;;;;;5091481;28;20462;-65
2021/04/26 10:31:59;;;;;;;16.08;4.30;;;15.10;59.00;;;;;;5094136;28;20020;-65
2021/04/26 10:34:43;;;;;;;8.38;3.78;;;15.20;59.20;;;;;;5094607;28;20141;-69
2021/04/26 10:37:14;;;;;;;7.70;3.63;;;15.30;57.00;;;;;;5089163;28;20031;-71
2021/04/26 10:39:53;;;;;;;8.73;4.07;;;15.40;53.70;;;;;;5087418;28;20484;-71
2021/04/26 10:42:42;;;;;;;8.05;3.50;;;15.30;54.50;;;;;;5085243;28;20029;-70
2021/04/26 10:45:20;;;;;;;6.30;3.00;;;15.60;55.30;;;;;;5079988;28;20030;-71
2021/04/26 10:48:06;;;;;;;6.45;3.05;;;15.40;52.80;;;;;;5072998;28;20508;-71
2021/04/26 10:50:48;;;;;;;9.75;4.15;;;15.60;52.90;;;;;;5078341;28;20123;-71
2021/04/26 10:53:13;;;;;;;6.95;3.65;;;15.60;54.60;;;;;;5078218;28;20547;-71
2021/04/26 10:55:43;;;;;;;7.28;3.63;;;16.00;54.80;;;;;;5088289;28;20091;-71
2021/04/26 10:58:22;;;;;;;6.80;3.40;;;16.00;51.80;;;;;;5088737;28;20039;-71
2021/04/26 11:00:49;;;;;;;9.90;3.70;;;16.00;53.40;;;;;;5089723;28;20447;-71
2021/04/26 11:03:17;;;;;;;6.97;3.42;;;16.10;53.50;;;;;;5079453;28;20118;-71
2021/04/26 11:05:45;;;;;;;10.02;4.03;;;16.00;53.40;;;;;;5088470;28;20104;-71
2021/04/26 11:08:44;;;;;;;10.23;4.30;;;16.30;53.60;;;;;;5090755;28;20137;-71
2021/04/26 11:11:20;;;;;;;7.75;3.63;;;16.40;56.30;;;;;;5088314;28;20028;-70
2021/04/26 11:14:06;;;;;;;7.97;4.20;;;16.40;53.80;;;;;;5089759;28;20065;-70
2021/04/26 11:17:02;;;;;;;17.40;4.15;;;16.70;51.70;;;;;;5084045;28;20559;-70
2021/04/26 11:19:29;;;;;;;10.15;3.83;;;16.60;51.50;;;;;;5088026;28;20016;-70
2021/04/26 11:21:56;;;;;;;9.55;3.88;;;16.60;55.10;;;;;;5088758;28;20020;-70
2021/04/26 11:24:25;;;;;;;13.15;4.03;;;16.60;53.20;;;;;;5086800;28;20054;-67
2021/04/26 11:27:08;;;;;;;6.45;3.45;;;16.70;53.60;;;;;;5090562;28;20032;-66
2021/04/26 11:29:35;;;;;;;6.93;3.30;;;16.60;50.30;;;;;;5094626;28;20119;-64
2021/04/26 11:32:05;;;;;;;8.18;4.10;;;16.60;52.40;;;;;;5094198;28;20479;-64
2021/04/26 11:34:55;;;;;;;7.63;3.85;;;16.50;50.10;;;;;;5092554;28;20038;-69
2021/04/26 11:37:25;;;;;;;7.25;4.28;;;16.50;49.30;;;;;;5085864;28;20380;-68
2021/04/26 11:39:53;;;;;;;7.03;3.97;;;16.20;47.90;;;;;;5088829;28;20357;-68
2021/04/26 11:42:31;;;;;;;6.30;4.10;;;16.10;49.90;;;;;;5087413;28;20089;-68
2021/04/26 11:44:57;;;;;;;8.98;3.90;;;16.70;52.60;;;;;;5085921;28;20112;-68
2021/04/26 11:47:24;;;;;;;9.93;4.10;;;16.90;51.70;;;;;;5087895;28;20053;-68
2021/04/26 11:49:57;;;;;;;7.13;3.85;;;17.20;49.80;;;;;;5087761;28;20035;-67
2021/04/26 11:52:25;;;;;;;8.40;3.90;;;16.90;49.50;;;;;;5087539;28;20077;-68
2021/04/26 11:55:03;;;;;;;6.95;4.28;;;17.10;51.60;;;;;;5087217;28;20020;-68
2021/04/26 11:57:29;;;;;;;8.02;3.83;;;17.10;50.50;;;;;;5087510;28;20812;-73
2021/04/26 12:00:00;;;;;;;9.90;4.10;;;17.00;50.40;;;;;;5084199;28;20071;-75
2021/04/26 12:02:38;;;;;;;6.32;3.72;;;16.70;48.20;;;;;;5076001;28;20049;-68
2021/04/26 12:05:20;;;;;;;10.35;4.18;;;16.90;50.70;;;;;;5077081;28;20028;-68
2021/04/26 12:07:46;;;;;;;5.65;3.58;;;16.70;49.90;;;;;;5075172;28;20473;-68
2021/04/26 12:10:15;;;;;;;9.38;3.88;;;17.00;49.60;;;;;;5077667;28;20016;-68
2021/04/26 12:12:42;;;;;;;4.60;3.70;;;16.80;48.90;;;;;;5079057;28;20024;-68
2021/04/26 12:15:09;;;;;;;9.60;4.07;;;16.90;48.20;;;;;;5079873;28;20074;-68
2021/04/26 12:17:37;;;;;;;7.72;3.50;;;16.70;49.30;;;;;;5075481;28;20028;-68
2021/04/26 12:20:22;;;;;;;12.07;3.70;;;16.90;48.30;;;;;;5074010;28;20159;-68
2021/04/26 12:22:52;;;;;;;;;;;16.70;48.90;;;;;;5089830;28;20113;-68
2021/04/26 12:25:18;;;;;;;7.88;3.60;;;16.80;46.10;;;;;;5087123;28;19908;-69
2021/04/26 12:27:44;;;;;;;7.63;3.67;;;16.90;46.90;;;;;;5089529;28;20468;-72
2021/04/26 12:30:20;;;;;;;7.93;4.00;;;16.60;46.50;;;;;;5089521;28;20127;-72
2021/04/26 12:32:47;;;;;;;8.20;3.65;;;16.70;49.00;;;;;;5088213;28;20023;-72
2021/04/26 12:35:28;;;;;;;5.57;3.78;;;16.90;49.00;;;;;;5091169;28;20483;-72
2021/04/26 12:37:55;;;;;;;5.50;3.30;;;16.70;47.30;;;;;;5088269;28;20022;-72
2021/04/26 12:40:24;;;;;;;6.47;3.63;;;16.90;49.80;;;;;;5087923;28;20513;-73
2021/04/26 12:43:11;;;;;;;8.38;3.92;;;17.00;47.80;;;;;;5090780;28;20081;-73
2021/04/26 12:45:45;;;;;;;6.78;3.60;;;17.20;46.80;;;;;;5090446;28;20486;-73
2021/04/26 12:48:16;;;;;;;6.10;3.70;;;17.20;46.40;;;;;;5083994;28;20020;-73
2021/04/26 12:50:47;;;;;;;6.13;3.85;;;16.90;46.80;;;;;;5090861;28;20043;-73
2021/04/26 12:53:25;;;;;;;8.70;4.05;;;17.10;48.30;;;;;;5086514;28;20111;-73
2021/04/26 12:55:51;;;;;;;8.25;4.32;;;17.30;50.00;;;;;;5085694;28;20027;-73